sensor_id;sensor_type;location;lat;lon;timestamp;temperature;humidity
9885;DHT22;4981;50.966;4.842;2023-02-01T00:00:30;6.20;1.00
9885;DHT22;4981;50.966;4.842;2023-02-01T00:03:01;5.50;1.00
9885;DHT22;4981;50.966;4.842;2023-02-01T00:05:28;6.10;1.00
9885;DHT22;4981;50.966;4.842;2023-02-01T00:07:56;5.60;1.00
9885;DHT22;4981;50.966;4.842;2023-02-01T00:10:23;6.20;1.00
9885;DHT22;4981;50.966;4.842;2023-02-01T00:12:50;6.20;1.00
9885;DHT22;4981;50.966;4.842;2023-02-01T00:15:18;6.20;1.00
9885;DHT22;4981;50.966;4.842;2023-02-01T00:17:46;6.20;1.00
9885;DHT22;4981;50.966;4.842;2023-02-01T00:20:15;6.20;1.00
9885;DHT22;4981;50.966;4.842;2023-02-01T00:22:42;5.70;1.00
9885;DHT22;4981;50.966;4.842;2023-02-01T00:25:09;6.30;1.00
9885;DHT22;4981;50.966;4.842;2023-02-01T00:27:36;6.20;1.00
9885;DHT22;4981;50.966;4.842;2023-02-01T00:30:05;6.30;1.00
9885;DHT22;4981;50.966;4.842;2023-02-01T00:32:32;6.30;1.00
9885;DHT22;4981;50.966;4.842;2023-02-01T00:35:00;6.80;1.00
9885;DHT22;4981;50.966;4.842;2023-02-01T00:37:28;6.20;1.00
9885;DHT22;4981;50.966;4.842;2023-02-01T00:39:56;6.30;1.00
9885;DHT22;4981;50.966;4.842;2023-02-01T00:42:23;6.40;1.00
9885;DHT22;4981;50.966;4.842;2023-02-01T00:47:18;6.30;1.00
9885;DHT22;4981;50.966;4.842;2023-02-01T00:49:46;6.30;1.00
9885;DHT22;4981;50.966;4.842;2023-02-01T00:52:13;6.40;1.00
9885;DHT22;4981;50.966;4.842;2023-02-01T00:54:42;6.40;1.00
9885;DHT22;4981;50.966;4.842;2023-02-01T00:57:09;6.40;1.00
9885;DHT22;4981;50.966;4.842;2023-02-01T00:59:37;6.40;1.00
9885;DHT22;4981;50.966;4.842;2023-02-01T01:02:04;6.50;1.00
9885;DHT22;4981;50.966;4.842;2023-02-01T01:04:31;6.40;1.00
9885;DHT22;4981;50.966;4.842;2023-02-01T01:16:55;6.20;1.00
9885;DHT22;4981;50.966;4.842;2023-02-01T01:19:22;6.20;1.00
9885;DHT22;4981;50.966;4.842;2023-02-01T01:21:50;6.20;1.00
9885;DHT22;4981;50.966;4.842;2023-02-01T01:24:17;6.20;1.00
9885;DHT22;4981;50.966;4.842;2023-02-01T01:26:44;6.00;1.00
9885;DHT22;4981;50.966;4.842;2023-02-01T01:29:13;6.20;1.00
9885;DHT22;4981;50.966;4.842;2023-02-01T01:31:40;6.30;1.00
9885;DHT22;4981;50.966;4.842;2023-02-01T01:39:03;6.20;1.00
9885;DHT22;4981;50.966;4.842;2023-02-01T01:41:31;6.40;1.00
9885;DHT22;4981;50.966;4.842;2023-02-01T01:44:00;6.60;1.00
9885;DHT22;4981;50.966;4.842;2023-02-01T01:46:31;6.40;1.00
9885;DHT22;4981;50.966;4.842;2023-02-01T01:51:34;6.40;1.00
9885;DHT22;4981;50.966;4.842;2023-02-01T01:54:05;6.60;1.00
9885;DHT22;4981;50.966;4.842;2023-02-01T01:56:34;6.40;1.00
9885;DHT22;4981;50.966;4.842;2023-02-01T01:59:03;6.40;1.00
9885;DHT22;4981;50.966;4.842;2023-02-01T02:01:32;6.40;1.00
9885;DHT22;4981;50.966;4.842;2023-02-01T02:04:00;6.50;1.00
9885;DHT22;4981;50.966;4.842;2023-02-01T02:06:36;6.50;1.00
9885;DHT22;4981;50.966;4.842;2023-02-01T02:11:33;6.30;1.00
9885;DHT22;4981;50.966;4.842;2023-02-01T02:14:01;6.50;1.00
9885;DHT22;4981;50.966;4.842;2023-02-01T02:16:52;6.50;1.00
9885;DHT22;4981;50.966;4.842;2023-02-01T02:26:01;6.20;1.00
9885;DHT22;4981;50.966;4.842;2023-02-01T02:28:56;6.50;1.00
9885;DHT22;4981;50.966;4.842;2023-02-01T02:31:45;6.30;1.00
9885;DHT22;4981;50.966;4.842;2023-02-01T02:34:19;6.10;1.00
9885;DHT22;4981;50.966;4.842;2023-02-01T02:36:56;6.20;1.00
9885;DHT22;4981;50.966;4.842;2023-02-01T02:39:37;7.10;1.00
9885;DHT22;4981;50.966;4.842;2023-02-01T02:42:11;6.10;1.00
9885;DHT22;4981;50.966;4.842;2023-02-01T02:45:00;6.40;1.00
9885;DHT22;4981;50.966;4.842;2023-02-01T02:47:52;6.00;1.00
9885;DHT22;4981;50.966;4.842;2023-02-01T02:50:26;6.00;1.00
9885;DHT22;4981;50.966;4.842;2023-02-01T02:53:15;5.90;1.00
9885;DHT22;4981;50.966;4.842;2023-02-01T02:56:02;5.90;1.00
9885;DHT22;4981;50.966;4.842;2023-02-01T02:58:48;5.80;1.00
9885;DHT22;4981;50.966;4.842;2023-02-01T03:01:33;5.80;1.00
9885;DHT22;4981;50.966;4.842;2023-02-01T03:04:17;5.90;1.00
9885;DHT22;4981;50.966;4.842;2023-02-01T03:06:47;5.80;1.00
9885;DHT22;4981;50.966;4.842;2023-02-01T03:09:19;5.50;1.00
9885;DHT22;4981;50.966;4.842;2023-02-01T03:11:49;5.50;1.00
9885;DHT22;4981;50.966;4.842;2023-02-01T03:14:38;5.60;1.00
9885;DHT22;4981;50.966;4.842;2023-02-01T03:17:12;6.20;1.00
9885;DHT22;4981;50.966;4.842;2023-02-01T03:19:44;5.40;1.00
9885;DHT22;4981;50.966;4.842;2023-02-01T03:22:20;5.50;1.00
9885;DHT22;4981;50.966;4.842;2023-02-01T03:24:52;5.60;1.00
9885;DHT22;4981;50.966;4.842;2023-02-01T03:32:19;5.60;1.00
9885;DHT22;4981;50.966;4.842;2023-02-01T03:34:47;5.70;1.00
9885;DHT22;4981;50.966;4.842;2023-02-01T03:37:22;5.70;1.00
9885;DHT22;4981;50.966;4.842;2023-02-01T03:42:25;5.70;1.00
9885;DHT22;4981;50.966;4.842;2023-02-01T03:44:57;5.70;1.00
9885;DHT22;4981;50.966;4.842;2023-02-01T03:54:57;5.30;1.00
9885;DHT22;4981;50.966;4.842;2023-02-01T04:00:04;5.40;1.00
9885;DHT22;4981;50.966;4.842;2023-02-01T04:02:32;5.30;1.00
9885;DHT22;4981;50.966;4.842;2023-02-01T04:07:29;5.40;1.00
9885;DHT22;4981;50.966;4.842;2023-02-01T04:09:56;5.40;1.00
9885;DHT22;4981;50.966;4.842;2023-02-01T04:12:23;5.40;1.00
9885;DHT22;4981;50.966;4.842;2023-02-01T04:19:46;5.10;1.00
9885;DHT22;4981;50.966;4.842;2023-02-01T04:22:13;5.10;1.00
9885;DHT22;4981;50.966;4.842;2023-02-01T04:29:37;5.10;1.00
9885;DHT22;4981;50.966;4.842;2023-02-01T04:34:32;5.20;1.00
9885;DHT22;4981;50.966;4.842;2023-02-01T04:37:00;5.30;1.00
9885;DHT22;4981;50.966;4.842;2023-02-01T04:46:52;5.00;1.00
9885;DHT22;4981;50.966;4.842;2023-02-01T04:54:15;5.50;1.00
9885;DHT22;4981;50.966;4.842;2023-02-01T04:56:42;5.30;1.00
9885;DHT22;4981;50.966;4.842;2023-02-01T04:59:12;5.20;1.00
9885;DHT22;4981;50.966;4.842;2023-02-01T05:09:02;5.00;1.00
9885;DHT22;4981;50.966;4.842;2023-02-01T05:11:29;5.20;1.00
9885;DHT22;4981;50.966;4.842;2023-02-01T05:14:18;4.90;1.00
9885;DHT22;4981;50.966;4.842;2023-02-01T05:16:45;5.30;1.00
9885;DHT22;4981;50.966;4.842;2023-02-01T05:24:08;5.00;1.00
9885;DHT22;4981;50.966;4.842;2023-02-01T05:36:39;4.90;1.00
9885;DHT22;4981;50.966;4.842;2023-02-01T05:41:35;4.80;1.00
9885;DHT22;4981;50.966;4.842;2023-02-01T05:46:33;4.80;1.00
9885;DHT22;4981;50.966;4.842;2023-02-01T05:51:29;4.90;1.00
9885;DHT22;4981;50.966;4.842;2023-02-01T05:53:56;4.90;1.00
9885;DHT22;4981;50.966;4.842;2023-02-01T05:56:24;4.90;1.00
9885;DHT22;4981;50.966;4.842;2023-02-01T05:58:51;4.90;1.00
9885;DHT22;4981;50.966;4.842;2023-02-01T06:08:44;4.80;1.00
9885;DHT22;4981;50.966;4.842;2023-02-01T06:18:35;4.70;1.00
9885;DHT22;4981;50.966;4.842;2023-02-01T06:28:28;4.70;1.00
9885;DHT22;4981;50.966;4.842;2023-02-01T06:35:57;4.70;1.00
9885;DHT22;4981;50.966;4.842;2023-02-01T06:40:55;4.60;1.00
9885;DHT22;4981;50.966;4.842;2023-02-01T06:43:23;4.60;1.00
9885;DHT22;4981;50.966;4.842;2023-02-01T06:48:18;4.70;1.00
9885;DHT22;4981;50.966;4.842;2023-02-01T06:55:41;4.50;1.00
9885;DHT22;4981;50.966;4.842;2023-02-01T06:58:09;4.80;1.00
9885;DHT22;4981;50.966;4.842;2023-02-01T07:00:37;4.90;1.00
9885;DHT22;4981;50.966;4.842;2023-02-01T07:03:04;4.80;1.00
9885;DHT22;4981;50.966;4.842;2023-02-01T07:05:31;4.50;1.00
9885;DHT22;4981;50.966;4.842;2023-02-01T07:07:59;4.90;1.00
9885;DHT22;4981;50.966;4.842;2023-02-01T07:10:26;4.80;1.00
9885;DHT22;4981;50.966;4.842;2023-02-01T07:12:56;4.90;1.00
9885;DHT22;4981;50.966;4.842;2023-02-01T07:20:21;4.70;1.00
9885;DHT22;4981;50.966;4.842;2023-02-01T07:22:54;4.80;1.00
9885;DHT22;4981;50.966;4.842;2023-02-01T07:25:22;4.80;1.00
9885;DHT22;4981;50.966;4.842;2023-02-01T07:27:49;4.40;1.00
9885;DHT22;4981;50.966;4.842;2023-02-01T07:30:17;4.80;1.00
9885;DHT22;4981;50.966;4.842;2023-02-01T07:32:46;4.70;1.00
9885;DHT22;4981;50.966;4.842;2023-02-01T07:35:14;4.60;1.00
9885;DHT22;4981;50.966;4.842;2023-02-01T07:37:41;4.50;1.00
9885;DHT22;4981;50.966;4.842;2023-02-01T07:40:09;4.60;1.00
9885;DHT22;4981;50.966;4.842;2023-02-01T07:42:37;4.60;1.00
9885;DHT22;4981;50.966;4.842;2023-02-01T07:45:05;4.80;1.00
9885;DHT22;4981;50.966;4.842;2023-02-01T07:47:33;4.90;1.00
9885;DHT22;4981;50.966;4.842;2023-02-01T07:50:01;4.90;1.00
9885;DHT22;4981;50.966;4.842;2023-02-01T07:52:29;4.80;1.00
9885;DHT22;4981;50.966;4.842;2023-02-01T08:02:36;5.00;1.00
9885;DHT22;4981;50.966;4.842;2023-02-01T08:05:06;5.00;1.00
9885;DHT22;4981;50.966;4.842;2023-02-01T08:07:34;4.80;1.00
9885;DHT22;4981;50.966;4.842;2023-02-01T08:14:58;5.10;1.00
9885;DHT22;4981;50.966;4.842;2023-02-01T08:17:26;5.20;1.00
9885;DHT22;4981;50.966;4.842;2023-02-01T08:22:23;5.20;1.00
9885;DHT22;4981;50.966;4.842;2023-02-01T08:24:50;5.40;1.00
9885;DHT22;4981;50.966;4.842;2023-02-01T08:27:26;5.50;1.00
9885;DHT22;4981;50.966;4.842;2023-02-01T08:29:54;5.20;1.00
9885;DHT22;4981;50.966;4.842;2023-02-01T08:32:21;5.50;1.00
9885;DHT22;4981;50.966;4.842;2023-02-01T08:45:00;5.40;1.00
9885;DHT22;4981;50.966;4.842;2023-02-01T08:47:28;5.60;1.00
9885;DHT22;4981;50.966;4.842;2023-02-01T08:49:55;5.60;1.00
9885;DHT22;4981;50.966;4.842;2023-02-01T08:52:22;5.60;1.00
9885;DHT22;4981;50.966;4.842;2023-02-01T08:54:51;5.90;1.00
9885;DHT22;4981;50.966;4.842;2023-02-01T08:57:18;5.80;1.00
9885;DHT22;4981;50.966;4.842;2023-02-01T08:59:46;5.80;1.00
9885;DHT22;4981;50.966;4.842;2023-02-01T09:02:14;5.90;1.00
9885;DHT22;4981;50.966;4.842;2023-02-01T09:04:41;6.00;1.00
9885;DHT22;4981;50.966;4.842;2023-02-01T09:07:09;5.90;1.00
9885;DHT22;4981;50.966;4.842;2023-02-01T09:09:37;5.90;1.00
9885;DHT22;4981;50.966;4.842;2023-02-01T09:14:34;5.80;1.00
9885;DHT22;4981;50.966;4.842;2023-02-01T09:17:02;6.00;1.00
9885;DHT22;4981;50.966;4.842;2023-02-01T09:19:31;6.00;1.00
9885;DHT22;4981;50.966;4.842;2023-02-01T09:24:26;6.00;1.00
9885;DHT22;4981;50.966;4.842;2023-02-01T09:26:53;5.90;1.00
9885;DHT22;4981;50.966;4.842;2023-02-01T09:31:49;6.00;1.00
9885;DHT22;4981;50.966;4.842;2023-02-01T09:39:12;6.10;1.00
9885;DHT22;4981;50.966;4.842;2023-02-01T09:41:48;6.30;1.00
9885;DHT22;4981;50.966;4.842;2023-02-01T09:44:32;6.80;1.00
9885;DHT22;4981;50.966;4.842;2023-02-01T09:47:04;6.40;1.00
9885;DHT22;4981;50.966;4.842;2023-02-01T09:49:42;6.40;1.00
9885;DHT22;4981;50.966;4.842;2023-02-01T09:52:13;6.20;1.00
9885;DHT22;4981;50.966;4.842;2023-02-01T09:54:44;6.60;1.00
9885;DHT22;4981;50.966;4.842;2023-02-01T09:59:47;6.40;1.00
9885;DHT22;4981;50.966;4.842;2023-02-01T10:18:29;6.60;1.00
9885;DHT22;4981;50.966;4.842;2023-02-01T10:23:48;6.80;1.00
9885;DHT22;4981;50.966;4.842;2023-02-01T10:26:19;7.10;1.00
9885;DHT22;4981;50.966;4.842;2023-02-01T10:28:50;7.20;1.00
9885;DHT22;4981;50.966;4.842;2023-02-01T10:33:49;7.10;1.00
9885;DHT22;4981;50.966;4.842;2023-02-01T10:38:49;7.20;1.00
9885;DHT22;4981;50.966;4.842;2023-02-01T10:41:18;7.40;1.00
9885;DHT22;4981;50.966;4.842;2023-02-01T10:43:49;7.80;1.00
9885;DHT22;4981;50.966;4.842;2023-02-01T10:51:19;7.30;1.00
9885;DHT22;4981;50.966;4.842;2023-02-01T10:53:52;7.30;1.00
9885;DHT22;4981;50.966;4.842;2023-02-01T11:18:58;8.00;1.00
9885;DHT22;4981;50.966;4.842;2023-02-01T11:21:26;8.20;1.00
9885;DHT22;4981;50.966;4.842;2023-02-01T11:23:53;8.30;1.00
9885;DHT22;4981;50.966;4.842;2023-02-01T11:26:23;8.20;1.00
9885;DHT22;4981;50.966;4.842;2023-02-01T11:28:54;8.20;1.00
9885;DHT22;4981;50.966;4.842;2023-02-01T11:31:24;8.30;1.00
9885;DHT22;4981;50.966;4.842;2023-02-01T11:33:54;8.30;1.00
9885;DHT22;4981;50.966;4.842;2023-02-01T11:36:26;8.60;1.00
9885;DHT22;4981;50.966;4.842;2023-02-01T11:39:08;9.20;1.00
9885;DHT22;4981;50.966;4.842;2023-02-01T11:41:41;8.80;1.00
9885;DHT22;4981;50.966;4.842;2023-02-01T11:44:21;8.70;1.00
9885;DHT22;4981;50.966;4.842;2023-02-01T11:46:49;8.80;1.00
9885;DHT22;4981;50.966;4.842;2023-02-01T11:49:21;8.60;1.00
9885;DHT22;4981;50.966;4.842;2023-02-01T11:52:05;8.60;1.00
9885;DHT22;4981;50.966;4.842;2023-02-01T11:54:58;8.90;1.00
9885;DHT22;4981;50.966;4.842;2023-02-01T11:57:39;8.70;1.00
9885;DHT22;4981;50.966;4.842;2023-02-01T12:00:25;8.70;1.00
9885;DHT22;4981;50.966;4.842;2023-02-01T12:03:27;8.90;1.00
9885;DHT22;4981;50.966;4.842;2023-02-01T12:05:59;8.90;1.00
9885;DHT22;4981;50.966;4.842;2023-02-01T12:11:46;8.90;1.00
9885;DHT22;4981;50.966;4.842;2023-02-01T12:14:27;9.20;1.00
9885;DHT22;4981;50.966;4.842;2023-02-01T12:17:12;9.00;1.00
9885;DHT22;4981;50.966;4.842;2023-02-01T12:19:58;8.90;1.00
9885;DHT22;4981;50.966;4.842;2023-02-01T12:22:36;8.80;1.00
9885;DHT22;4981;50.966;4.842;2023-02-01T12:25:39;8.70;1.00
9885;DHT22;4981;50.966;4.842;2023-02-01T12:28:21;8.20;1.00
9885;DHT22;4981;50.966;4.842;2023-02-01T12:34:07;8.70;1.00
9885;DHT22;4981;50.966;4.842;2023-02-01T12:36:43;8.70;1.00
9885;DHT22;4981;50.966;4.842;2023-02-01T12:39:22;8.70;1.00
9885;DHT22;4981;50.966;4.842;2023-02-01T12:41:58;8.60;1.00
9885;DHT22;4981;50.966;4.842;2023-02-01T12:44:38;8.70;1.00
9885;DHT22;4981;50.966;4.842;2023-02-01T12:47:13;8.70;1.00
9885;DHT22;4981;50.966;4.842;2023-02-01T12:49:50;8.80;1.00
9885;DHT22;4981;50.966;4.842;2023-02-01T12:52:24;8.60;1.00
9885;DHT22;4981;50.966;4.842;2023-02-01T12:57:27;8.60;1.00
9885;DHT22;4981;50.966;4.842;2023-02-01T13:07:33;8.60;1.00
9885;DHT22;4981;50.966;4.842;2023-02-01T13:10:05;8.70;1.00
9885;DHT22;4981;50.966;4.842;2023-02-01T13:12:44;8.90;1.00
9885;DHT22;4981;50.966;4.842;2023-02-01T13:17:44;7.50;1.00
9885;DHT22;4981;50.966;4.842;2023-02-01T13:20:19;8.80;1.00
9885;DHT22;4981;50.966;4.842;2023-02-01T13:22:51;9.00;1.00
9885;DHT22;4981;50.966;4.842;2023-02-01T13:25:29;8.90;1.00
9885;DHT22;4981;50.966;4.842;2023-02-01T13:43:59;8.90;1.00
9885;DHT22;4981;50.966;4.842;2023-02-01T13:46:27;9.10;1.00
9885;DHT22;4981;50.966;4.842;2023-02-01T13:48:57;9.10;1.00
9885;DHT22;4981;50.966;4.842;2023-02-01T13:51:45;9.00;1.00
9885;DHT22;4981;50.966;4.842;2023-02-01T13:54:26;9.00;1.00
9885;DHT22;4981;50.966;4.842;2023-02-01T13:56:54;9.00;1.00
9885;DHT22;4981;50.966;4.842;2023-02-01T13:59:52;8.90;1.00
9885;DHT22;4981;50.966;4.842;2023-02-01T14:02:50;9.10;1.00
9885;DHT22;4981;50.966;4.842;2023-02-01T14:05:57;8.90;1.00
9885;DHT22;4981;50.966;4.842;2023-02-01T14:08:38;9.00;1.00
9885;DHT22;4981;50.966;4.842;2023-02-01T14:11:05;9.20;1.00
9885;DHT22;4981;50.966;4.842;2023-02-01T14:13:34;9.10;1.00
9885;DHT22;4981;50.966;4.842;2023-02-01T14:18:59;9.00;1.00
9885;DHT22;4981;50.966;4.842;2023-02-01T14:21:30;9.20;1.00
9885;DHT22;4981;50.966;4.842;2023-02-01T14:24:01;9.10;1.00
9885;DHT22;4981;50.966;4.842;2023-02-01T14:29:22;9.00;1.00
9885;DHT22;4981;50.966;4.842;2023-02-01T14:36:58;8.90;1.00
9885;DHT22;4981;50.966;4.842;2023-02-01T14:39:35;8.80;1.00
9885;DHT22;4981;50.966;4.842;2023-02-01T14:44:35;8.90;1.00
9885;DHT22;4981;50.966;4.842;2023-02-01T14:49:52;8.80;1.00
9885;DHT22;4981;50.966;4.842;2023-02-01T14:54:54;8.80;1.00
9885;DHT22;4981;50.966;4.842;2023-02-01T14:57:27;9.00;1.00
9885;DHT22;4981;50.966;4.842;2023-02-01T15:00:01;9.00;1.00
9885;DHT22;4981;50.966;4.842;2023-02-01T15:12:40;8.70;1.00
9885;DHT22;4981;50.966;4.842;2023-02-01T15:15:12;9.60;1.00
9885;DHT22;4981;50.966;4.842;2023-02-01T15:17:40;8.90;1.00
9885;DHT22;4981;50.966;4.842;2023-02-01T15:22:52;8.80;1.00
9885;DHT22;4981;50.966;4.842;2023-02-01T15:25:23;8.90;1.00
9885;DHT22;4981;50.966;4.842;2023-02-01T15:27:51;8.90;1.00
9885;DHT22;4981;50.966;4.842;2023-02-01T15:30:20;8.80;1.00
9885;DHT22;4981;50.966;4.842;2023-02-01T15:32:48;8.70;1.00
9885;DHT22;4981;50.966;4.842;2023-02-01T15:35:50;8.50;1.00
9885;DHT22;4981;50.966;4.842;2023-02-01T15:38:30;8.70;1.00
9885;DHT22;4981;50.966;4.842;2023-02-01T15:43:29;8.60;1.00
9885;DHT22;4981;50.966;4.842;2023-02-01T15:45:59;8.70;1.00
9885;DHT22;4981;50.966;4.842;2023-02-01T15:48:36;8.40;1.00
9885;DHT22;4981;50.966;4.842;2023-02-01T15:53:34;8.60;1.00
9885;DHT22;4981;50.966;4.842;2023-02-01T15:58:31;8.50;1.00
9885;DHT22;4981;50.966;4.842;2023-02-01T16:01:01;8.70;1.00
9885;DHT22;4981;50.966;4.842;2023-02-01T16:08:33;8.70;1.00
9885;DHT22;4981;50.966;4.842;2023-02-01T16:11:20;8.60;1.00
9885;DHT22;4981;50.966;4.842;2023-02-01T16:13:48;8.60;1.00
9885;DHT22;4981;50.966;4.842;2023-02-01T16:16:16;7.50;1.00
9885;DHT22;4981;50.966;4.842;2023-02-01T16:18:43;8.60;1.00
9885;DHT22;4981;50.966;4.842;2023-02-01T16:23:40;8.40;1.00
9885;DHT22;4981;50.966;4.842;2023-02-01T16:26:07;8.90;1.00
9885;DHT22;4981;50.966;4.842;2023-02-01T16:28:35;8.50;1.00
9885;DHT22;4981;50.966;4.842;2023-02-01T16:33:30;8.40;1.00
9885;DHT22;4981;50.966;4.842;2023-02-01T16:38:27;8.40;1.00
9885;DHT22;4981;50.966;4.842;2023-02-01T16:40:56;8.50;1.00
9885;DHT22;4981;50.966;4.842;2023-02-01T16:43:25;8.40;1.00
9885;DHT22;4981;50.966;4.842;2023-02-01T16:45:55;8.30;1.00
9885;DHT22;4981;50.966;4.842;2023-02-01T16:48:24;8.40;1.00
9885;DHT22;4981;50.966;4.842;2023-02-01T16:50:54;8.50;1.00
9885;DHT22;4981;50.966;4.842;2023-02-01T16:53:23;8.40;1.00
9885;DHT22;4981;50.966;4.842;2023-02-01T16:55:53;8.40;1.00
9885;DHT22;4981;50.966;4.842;2023-02-01T16:58:24;8.40;1.00
9885;DHT22;4981;50.966;4.842;2023-02-01T17:00:53;8.40;1.00
9885;DHT22;4981;50.966;4.842;2023-02-01T17:03:21;8.40;1.00
9885;DHT22;4981;50.966;4.842;2023-02-01T17:05:51;8.50;1.00
9885;DHT22;4981;50.966;4.842;2023-02-01T17:08:25;8.30;1.00
9885;DHT22;4981;50.966;4.842;2023-02-01T17:10:54;8.10;1.00
9885;DHT22;4981;50.966;4.842;2023-02-01T17:13:22;8.20;1.00
9885;DHT22;4981;50.966;4.842;2023-02-01T17:15:53;8.40;1.00
9885;DHT22;4981;50.966;4.842;2023-02-01T17:18:21;8.30;1.00
9885;DHT22;4981;50.966;4.842;2023-02-01T17:20:50;8.10;1.00
9885;DHT22;4981;50.966;4.842;2023-02-01T17:23:18;7.60;1.00
9885;DHT22;4981;50.966;4.842;2023-02-01T17:28:13;7.40;1.00
9885;DHT22;4981;50.966;4.842;2023-02-01T17:30:41;7.70;1.00
9885;DHT22;4981;50.966;4.842;2023-02-01T17:33:19;7.70;1.00
9885;DHT22;4981;50.966;4.842;2023-02-01T17:35:47;7.70;1.00
9885;DHT22;4981;50.966;4.842;2023-02-01T17:38:14;7.60;1.00
9885;DHT22;4981;50.966;4.842;2023-02-01T17:40:42;8.00;1.00
9885;DHT22;4981;50.966;4.842;2023-02-01T17:45:44;7.80;1.00
9885;DHT22;4981;50.966;4.842;2023-02-01T17:48:18;7.90;1.00
9885;DHT22;4981;50.966;4.842;2023-02-01T17:50:47;8.00;1.00
9885;DHT22;4981;50.966;4.842;2023-02-01T17:53:15;8.00;1.00
9885;DHT22;4981;50.966;4.842;2023-02-01T17:55:45;8.10;1.00
9885;DHT22;4981;50.966;4.842;2023-02-01T17:58:14;8.00;1.00
9885;DHT22;4981;50.966;4.842;2023-02-01T18:00:42;8.00;1.00
9885;DHT22;4981;50.966;4.842;2023-02-01T18:03:21;8.00;1.00
9885;DHT22;4981;50.966;4.842;2023-02-01T18:05:50;8.00;1.00
9885;DHT22;4981;50.966;4.842;2023-02-01T18:08:19;8.00;1.00
9885;DHT22;4981;50.966;4.842;2023-02-01T18:18:12;7.90;1.00
9885;DHT22;4981;50.966;4.842;2023-02-01T18:20:42;8.00;1.00
9885;DHT22;4981;50.966;4.842;2023-02-01T18:23:18;8.00;1.00
9885;DHT22;4981;50.966;4.842;2023-02-01T18:25:48;8.00;1.00
9885;DHT22;4981;50.966;4.842;2023-02-01T18:28:16;7.90;1.00
9885;DHT22;4981;50.966;4.842;2023-02-01T18:30:46;7.90;1.00
9885;DHT22;4981;50.966;4.842;2023-02-01T18:33:16;7.90;1.00
9885;DHT22;4981;50.966;4.842;2023-02-01T18:35:46;7.90;1.00
9885;DHT22;4981;50.966;4.842;2023-02-01T18:38:13;7.20;1.00
9885;DHT22;4981;50.966;4.842;2023-02-01T18:40:46;7.90;1.00
9885;DHT22;4981;50.966;4.842;2023-02-01T18:43:14;7.40;1.00
9885;DHT22;4981;50.966;4.842;2023-02-01T18:45:43;7.90;1.00
9885;DHT22;4981;50.966;4.842;2023-02-01T18:48:12;7.80;1.00
9885;DHT22;4981;50.966;4.842;2023-02-01T18:50:41;7.70;1.00
9885;DHT22;4981;50.966;4.842;2023-02-01T18:53:12;7.90;1.00
9885;DHT22;4981;50.966;4.842;2023-02-01T18:58:10;7.50;1.00
9885;DHT22;4981;50.966;4.842;2023-02-01T19:00:38;7.70;1.00
9885;DHT22;4981;50.966;4.842;2023-02-01T19:03:05;7.90;1.00
9885;DHT22;4981;50.966;4.842;2023-02-01T19:05:32;7.90;1.00
9885;DHT22;4981;50.966;4.842;2023-02-01T19:08:00;7.80;1.00
9885;DHT22;4981;50.966;4.842;2023-02-01T19:10:28;7.90;1.00
9885;DHT22;4981;50.966;4.842;2023-02-01T19:12:56;7.90;1.00
9885;DHT22;4981;50.966;4.842;2023-02-01T19:17:53;7.70;1.00
9885;DHT22;4981;50.966;4.842;2023-02-01T19:20:22;7.80;1.00
9885;DHT22;4981;50.966;4.842;2023-02-01T19:22:50;8.00;1.00
9885;DHT22;4981;50.966;4.842;2023-02-01T19:25:19;8.40;1.00
9885;DHT22;4981;50.966;4.842;2023-02-01T19:27:50;7.80;1.00
9885;DHT22;4981;50.966;4.842;2023-02-01T19:30:18;7.30;1.00
9885;DHT22;4981;50.966;4.842;2023-02-01T19:32:46;8.00;1.00
9885;DHT22;4981;50.966;4.842;2023-02-01T19:35:16;8.00;1.00
9885;DHT22;4981;50.966;4.842;2023-02-01T19:37:45;8.10;1.00
9885;DHT22;4981;50.966;4.842;2023-02-01T19:40:16;8.00;1.00
9885;DHT22;4981;50.966;4.842;2023-02-01T19:42:44;8.10;1.00
9885;DHT22;4981;50.966;4.842;2023-02-01T19:45:13;8.00;1.00
9885;DHT22;4981;50.966;4.842;2023-02-01T19:47:41;8.00;1.00
9885;DHT22;4981;50.966;4.842;2023-02-01T19:50:10;8.00;1.00
9885;DHT22;4981;50.966;4.842;2023-02-01T19:52:41;8.00;1.00
9885;DHT22;4981;50.966;4.842;2023-02-01T19:55:10;8.00;1.00
9885;DHT22;4981;50.966;4.842;2023-02-01T19:57:38;8.10;1.00
9885;DHT22;4981;50.966;4.842;2023-02-01T20:00:07;8.10;1.00
9885;DHT22;4981;50.966;4.842;2023-02-01T20:02:37;8.10;1.00
9885;DHT22;4981;50.966;4.842;2023-02-01T20:05:06;7.90;1.00
9885;DHT22;4981;50.966;4.842;2023-02-01T20:07:36;7.90;1.00
9885;DHT22;4981;50.966;4.842;2023-02-01T20:10:04;7.90;1.00
9885;DHT22;4981;50.966;4.842;2023-02-01T20:12:32;8.90;1.00
9885;DHT22;4981;50.966;4.842;2023-02-01T20:14:59;7.80;1.00
9885;DHT22;4981;50.966;4.842;2023-02-01T20:19:56;7.60;1.00
9885;DHT22;4981;50.966;4.842;2023-02-01T20:22:24;7.70;1.00
9885;DHT22;4981;50.966;4.842;2023-02-01T20:29:47;7.60;1.00
9885;DHT22;4981;50.966;4.842;2023-02-01T20:32:14;7.80;1.00
9885;DHT22;4981;50.966;4.842;2023-02-01T20:34:41;7.80;1.00
9885;DHT22;4981;50.966;4.842;2023-02-01T20:37:10;8.00;1.00
9885;DHT22;4981;50.966;4.842;2023-02-01T20:39:37;7.90;1.00
9885;DHT22;4981;50.966;4.842;2023-02-01T20:42:05;7.30;1.00
9885;DHT22;4981;50.966;4.842;2023-02-01T20:44:32;7.70;1.00
9885;DHT22;4981;50.966;4.842;2023-02-01T20:46:59;7.90;1.00
9885;DHT22;4981;50.966;4.842;2023-02-01T20:49:29;8.60;1.00
9885;DHT22;4981;50.966;4.842;2023-02-01T20:51:56;8.00;1.00
9885;DHT22;4981;50.966;4.842;2023-02-01T20:56:52;7.80;1.00
9885;DHT22;4981;50.966;4.842;2023-02-01T20:59:20;8.00;1.00
9885;DHT22;4981;50.966;4.842;2023-02-01T21:01:47;8.00;1.00
9885;DHT22;4981;50.966;4.842;2023-02-01T21:04:22;7.70;1.00
9885;DHT22;4981;50.966;4.842;2023-02-01T21:06:52;7.70;1.00
9885;DHT22;4981;50.966;4.842;2023-02-01T21:09:19;8.00;1.00
9885;DHT22;4981;50.966;4.842;2023-02-01T21:11:48;7.70;1.00
9885;DHT22;4981;50.966;4.842;2023-02-01T21:14:15;7.90;1.00
9885;DHT22;4981;50.966;4.842;2023-02-01T21:16:42;7.90;1.00
9885;DHT22;4981;50.966;4.842;2023-02-01T21:21:37;7.80;1.00
9885;DHT22;4981;50.966;4.842;2023-02-01T21:29:09;7.70;1.00
9885;DHT22;4981;50.966;4.842;2023-02-01T21:31:37;8.00;1.00
9885;DHT22;4981;50.966;4.842;2023-02-01T21:34:05;7.90;1.00
9885;DHT22;4981;50.966;4.842;2023-02-01T21:36:32;7.80;1.00
9885;DHT22;4981;50.966;4.842;2023-02-01T21:44:19;7.70;1.00
9885;DHT22;4981;50.966;4.842;2023-02-01T21:46:46;8.00;1.00
9885;DHT22;4981;50.966;4.842;2023-02-01T21:49:14;7.90;1.00
9885;DHT22;4981;50.966;4.842;2023-02-01T21:51:42;7.90;1.00
9885;DHT22;4981;50.966;4.842;2023-02-01T21:54:10;7.90;1.00
9885;DHT22;4981;50.966;4.842;2023-02-01T21:56:38;7.90;1.00
9885;DHT22;4981;50.966;4.842;2023-02-01T21:59:06;7.90;1.00
9885;DHT22;4981;50.966;4.842;2023-02-01T22:01:38;7.90;1.00
9885;DHT22;4981;50.966;4.842;2023-02-01T22:04:05;8.00;1.00
9885;DHT22;4981;50.966;4.842;2023-02-01T22:06:35;8.00;1.00
9885;DHT22;4981;50.966;4.842;2023-02-01T22:09:03;8.00;1.00
9885;DHT22;4981;50.966;4.842;2023-02-01T22:11:31;8.00;1.00
9885;DHT22;4981;50.966;4.842;2023-02-01T22:13:58;8.00;1.00
9885;DHT22;4981;50.966;4.842;2023-02-01T22:16:26;7.90;1.00
9885;DHT22;4981;50.966;4.842;2023-02-01T22:18:54;8.00;1.00
9885;DHT22;4981;50.966;4.842;2023-02-01T22:21:22;7.90;1.00
9885;DHT22;4981;50.966;4.842;2023-02-01T22:23:51;8.00;1.00
9885;DHT22;4981;50.966;4.842;2023-02-01T22:26:19;8.00;1.00
9885;DHT22;4981;50.966;4.842;2023-02-01T22:28:46;7.90;1.00
9885;DHT22;4981;50.966;4.842;2023-02-01T22:31:14;7.60;1.00
9885;DHT22;4981;50.966;4.842;2023-02-01T22:33:41;7.90;1.00
9885;DHT22;4981;50.966;4.842;2023-02-01T22:36:11;7.90;1.00
9885;DHT22;4981;50.966;4.842;2023-02-01T22:38:39;8.00;1.00
9885;DHT22;4981;50.966;4.842;2023-02-01T22:41:07;8.00;1.00
9885;DHT22;4981;50.966;4.842;2023-02-01T22:43:34;8.00;1.00
9885;DHT22;4981;50.966;4.842;2023-02-01T22:46:04;7.60;1.00
9885;DHT22;4981;50.966;4.842;2023-02-01T22:48:34;7.90;1.00
9885;DHT22;4981;50.966;4.842;2023-02-01T22:53:32;8.10;1.00
9885;DHT22;4981;50.966;4.842;2023-02-01T22:56:00;8.00;1.00
9885;DHT22;4981;50.966;4.842;2023-02-01T22:58:27;8.00;1.00
9885;DHT22;4981;50.966;4.842;2023-02-01T23:00:55;8.40;1.00
9885;DHT22;4981;50.966;4.842;2023-02-01T23:05:50;7.70;1.00